sensor_id;sensor_type;location;lat;lon;timestamp;P1;durP1;ratioP1;P2;durP2;ratioP2
10761;SDS011;5433;50.862;4.320;2024-03-07T00:01:32;13.32;;;10.93;;
10761;SDS011;5433;50.862;4.320;2024-03-07T00:03:58;13.52;;;10.95;;
10761;SDS011;5433;50.862;4.320;2024-03-07T00:06:24;15.88;;;11.60;;
10761;SDS011;5433;50.862;4.320;2024-03-07T00:08:50;16.58;;;11.65;;
10761;SDS011;5433;50.862;4.320;2024-03-07T00:11:16;16.15;;;11.50;;
10761;SDS011;5433;50.862;4.320;2024-03-07T00:13:42;16.45;;;12.02;;
10761;SDS011;5433;50.862;4.320;2024-03-07T00:16:08;16.40;;;12.02;;
10761;SDS011;5433;50.862;4.320;2024-03-07T00:18:35;13.88;;;11.50;;
10761;SDS011;5433;50.862;4.320;2024-03-07T00:21:02;15.23;;;11.45;;
10761;SDS011;5433;50.862;4.320;2024-03-07T00:23:28;16.13;;;11.65;;
10761;SDS011;5433;50.862;4.320;2024-03-07T00:25:55;15.50;;;11.95;;
10761;SDS011;5433;50.862;4.320;2024-03-07T00:28:21;16.08;;;12.85;;
10761;SDS011;5433;50.862;4.320;2024-03-07T00:30:47;19.60;;;12.30;;
10761;SDS011;5433;50.862;4.320;2024-03-07T00:33:13;20.13;;;13.75;;
10761;SDS011;5433;50.862;4.320;2024-03-07T00:35:40;15.93;;;12.30;;
10761;SDS011;5433;50.862;4.320;2024-03-07T00:38:06;18.95;;;13.88;;
10761;SDS011;5433;50.862;4.320;2024-03-07T00:40:32;17.95;;;13.18;;
10761;SDS011;5433;50.862;4.320;2024-03-07T00:42:58;19.63;;;14.05;;
10761;SDS011;5433;50.862;4.320;2024-03-07T00:45:24;22.55;;;14.07;;
10761;SDS011;5433;50.862;4.320;2024-03-07T00:47:50;24.52;;;14.65;;
10761;SDS011;5433;50.862;4.320;2024-03-07T00:50:17;21.45;;;14.63;;
10761;SDS011;5433;50.862;4.320;2024-03-07T00:52:43;19.65;;;14.45;;
10761;SDS011;5433;50.862;4.320;2024-03-07T00:55:09;20.50;;;15.88;;
10761;SDS011;5433;50.862;4.320;2024-03-07T00:57:36;23.65;;;15.57;;
10761;SDS011;5433;50.862;4.320;2024-03-07T01:00:02;21.73;;;15.57;;
10761;SDS011;5433;50.862;4.320;2024-03-07T01:02:31;22.95;;;16.75;;
10761;SDS011;5433;50.862;4.320;2024-03-07T01:04:59;20.40;;;15.80;;
10761;SDS011;5433;50.862;4.320;2024-03-07T01:07:25;23.63;;;17.08;;
10761;SDS011;5433;50.862;4.320;2024-03-07T01:09:53;25.40;;;17.40;;
10761;SDS011;5433;50.862;4.320;2024-03-07T01:12:19;24.05;;;17.02;;
10761;SDS011;5433;50.862;4.320;2024-03-07T01:14:47;25.98;;;17.65;;
10761;SDS011;5433;50.862;4.320;2024-03-07T01:17:13;25.83;;;19.05;;
10761;SDS011;5433;50.862;4.320;2024-03-07T01:19:39;26.77;;;18.02;;
10761;SDS011;5433;50.862;4.320;2024-03-07T01:22:05;26.13;;;18.58;;
10761;SDS011;5433;50.862;4.320;2024-03-07T01:24:31;27.83;;;20.40;;
10761;SDS011;5433;50.862;4.320;2024-03-07T01:26:58;28.02;;;19.90;;
10761;SDS011;5433;50.862;4.320;2024-03-07T01:29:27;29.08;;;20.75;;
10761;SDS011;5433;50.862;4.320;2024-03-07T01:31:53;28.08;;;19.95;;
10761;SDS011;5433;50.862;4.320;2024-03-07T01:34:19;32.88;;;20.52;;
10761;SDS011;5433;50.862;4.320;2024-03-07T01:36:45;30.27;;;20.58;;
10761;SDS011;5433;50.862;4.320;2024-03-07T01:39:13;30.20;;;19.98;;
10761;SDS011;5433;50.862;4.320;2024-03-07T01:41:39;28.27;;;20.48;;
10761;SDS011;5433;50.862;4.320;2024-03-07T01:44:05;32.83;;;21.55;;
10761;SDS011;5433;50.862;4.320;2024-03-07T01:46:32;33.00;;;21.90;;
10761;SDS011;5433;50.862;4.320;2024-03-07T01:48:58;32.88;;;21.65;;
10761;SDS011;5433;50.862;4.320;2024-03-07T01:51:24;35.10;;;22.63;;
10761;SDS011;5433;50.862;4.320;2024-03-07T01:53:51;35.85;;;23.58;;
10761;SDS011;5433;50.862;4.320;2024-03-07T01:56:18;37.40;;;23.70;;
10761;SDS011;5433;50.862;4.320;2024-03-07T01:58:45;36.20;;;24.13;;
10761;SDS011;5433;50.862;4.320;2024-03-07T02:01:11;37.95;;;24.65;;
10761;SDS011;5433;50.862;4.320;2024-03-07T02:03:39;34.95;;;24.85;;
10761;SDS011;5433;50.862;4.320;2024-03-07T02:06:05;38.45;;;24.45;;
10761;SDS011;5433;50.862;4.320;2024-03-07T02:08:31;35.90;;;24.30;;
10761;SDS011;5433;50.862;4.320;2024-03-07T02:10:57;38.05;;;23.60;;
10761;SDS011;5433;50.862;4.320;2024-03-07T02:13:23;40.35;;;25.45;;
10761;SDS011;5433;50.862;4.320;2024-03-07T02:15:49;40.15;;;25.17;;
10761;SDS011;5433;50.862;4.320;2024-03-07T02:18:15;40.38;;;26.20;;
10761;SDS011;5433;50.862;4.320;2024-03-07T02:20:44;38.78;;;25.80;;
10761;SDS011;5433;50.862;4.320;2024-03-07T02:23:13;43.35;;;27.13;;
10761;SDS011;5433;50.862;4.320;2024-03-07T02:25:39;40.75;;;26.90;;
10761;SDS011;5433;50.862;4.320;2024-03-07T02:28:05;42.42;;;26.90;;
10761;SDS011;5433;50.862;4.320;2024-03-07T02:30:31;43.65;;;27.10;;
10761;SDS011;5433;50.862;4.320;2024-03-07T02:33:01;44.00;;;26.83;;
10761;SDS011;5433;50.862;4.320;2024-03-07T02:35:32;46.25;;;27.95;;
10761;SDS011;5433;50.862;4.320;2024-03-07T02:37:59;41.83;;;26.90;;
10761;SDS011;5433;50.862;4.320;2024-03-07T02:40:25;43.65;;;27.90;;
10761;SDS011;5433;50.862;4.320;2024-03-07T02:42:50;46.78;;;28.67;;
10761;SDS011;5433;50.862;4.320;2024-03-07T02:45:16;45.08;;;27.63;;
10761;SDS011;5433;50.862;4.320;2024-03-07T02:47:42;44.53;;;29.35;;
10761;SDS011;5433;50.862;4.320;2024-03-07T02:50:09;48.78;;;29.63;;
10761;SDS011;5433;50.862;4.320;2024-03-07T02:52:35;45.45;;;28.38;;
10761;SDS011;5433;50.862;4.320;2024-03-07T02:55:01;46.08;;;28.63;;
10761;SDS011;5433;50.862;4.320;2024-03-07T02:57:29;45.95;;;29.25;;
10761;SDS011;5433;50.862;4.320;2024-03-07T02:59:55;46.88;;;29.05;;
10761;SDS011;5433;50.862;4.320;2024-03-07T03:02:22;45.47;;;28.05;;
10761;SDS011;5433;50.862;4.320;2024-03-07T03:04:48;51.58;;;29.83;;
10761;SDS011;5433;50.862;4.320;2024-03-07T03:07:14;43.05;;;29.13;;
10761;SDS011;5433;50.862;4.320;2024-03-07T03:09:40;47.65;;;29.95;;
10761;SDS011;5433;50.862;4.320;2024-03-07T03:12:08;48.13;;;29.92;;
10761;SDS011;5433;50.862;4.320;2024-03-07T03:14:35;47.67;;;29.88;;
10761;SDS011;5433;50.862;4.320;2024-03-07T03:17:01;48.47;;;30.35;;
10761;SDS011;5433;50.862;4.320;2024-03-07T03:19:27;48.92;;;30.40;;
10761;SDS011;5433;50.862;4.320;2024-03-07T03:21:53;52.17;;;31.40;;
10761;SDS011;5433;50.862;4.320;2024-03-07T03:24:20;49.85;;;31.05;;
10761;SDS011;5433;50.862;4.320;2024-03-07T03:26:47;49.20;;;30.60;;
10761;SDS011;5433;50.862;4.320;2024-03-07T03:29:13;51.85;;;32.22;;
10761;SDS011;5433;50.862;4.320;2024-03-07T03:31:41;53.22;;;32.35;;
10761;SDS011;5433;50.862;4.320;2024-03-07T03:34:07;52.83;;;31.35;;
10761;SDS011;5433;50.862;4.320;2024-03-07T03:36:34;53.15;;;32.13;;
10761;SDS011;5433;50.862;4.320;2024-03-07T03:39:00;53.20;;;31.77;;
10761;SDS011;5433;50.862;4.320;2024-03-07T03:41:26;55.05;;;32.67;;
10761;SDS011;5433;50.862;4.320;2024-03-07T03:43:52;50.88;;;32.13;;
10761;SDS011;5433;50.862;4.320;2024-03-07T03:46:18;52.83;;;31.60;;
10761;SDS011;5433;50.862;4.320;2024-03-07T03:48:44;53.50;;;33.22;;
10761;SDS011;5433;50.862;4.320;2024-03-07T03:51:10;53.83;;;32.17;;
10761;SDS011;5433;50.862;4.320;2024-03-07T03:53:38;53.75;;;32.70;;
10761;SDS011;5433;50.862;4.320;2024-03-07T03:56:04;55.75;;;33.30;;
10761;SDS011;5433;50.862;4.320;2024-03-07T03:58:31;55.08;;;33.10;;
10761;SDS011;5433;50.862;4.320;2024-03-07T04:00:57;55.45;;;33.60;;
10761;SDS011;5433;50.862;4.320;2024-03-07T04:03:26;54.83;;;33.55;;
10761;SDS011;5433;50.862;4.320;2024-03-07T04:05:52;56.80;;;34.13;;
10761;SDS011;5433;50.862;4.320;2024-03-07T04:08:18;55.13;;;33.78;;
10761;SDS011;5433;50.862;4.320;2024-03-07T04:10:45;53.60;;;32.58;;
10761;SDS011;5433;50.862;4.320;2024-03-07T04:13:11;57.10;;;33.83;;
10761;SDS011;5433;50.862;4.320;2024-03-07T04:15:37;54.00;;;32.55;;
10761;SDS011;5433;50.862;4.320;2024-03-07T04:18:03;53.88;;;31.75;;
10761;SDS011;5433;50.862;4.320;2024-03-07T04:20:30;58.05;;;33.88;;
10761;SDS011;5433;50.862;4.320;2024-03-07T04:22:55;56.20;;;33.85;;
10761;SDS011;5433;50.862;4.320;2024-03-07T04:25:21;59.83;;;33.35;;
10761;SDS011;5433;50.862;4.320;2024-03-07T04:27:49;57.15;;;33.30;;
10761;SDS011;5433;50.862;4.320;2024-03-07T04:30:16;59.58;;;34.65;;
10761;SDS011;5433;50.862;4.320;2024-03-07T04:32:42;60.38;;;34.95;;
10761;SDS011;5433;50.862;4.320;2024-03-07T04:35:08;56.60;;;34.70;;
10761;SDS011;5433;50.862;4.320;2024-03-07T04:37:35;60.00;;;34.75;;
10761;SDS011;5433;50.862;4.320;2024-03-07T04:40:04;59.35;;;34.78;;
10761;SDS011;5433;50.862;4.320;2024-03-07T04:42:43;57.92;;;34.22;;
10761;SDS011;5433;50.862;4.320;2024-03-07T04:45:10;59.63;;;33.40;;
10761;SDS011;5433;50.862;4.320;2024-03-07T04:47:38;62.83;;;33.35;;
10761;SDS011;5433;50.862;4.320;2024-03-07T04:50:05;59.83;;;34.60;;
10761;SDS011;5433;50.862;4.320;2024-03-07T04:52:31;63.55;;;35.65;;
10761;SDS011;5433;50.862;4.320;2024-03-07T04:54:57;63.05;;;34.83;;
10761;SDS011;5433;50.862;4.320;2024-03-07T04:57:23;60.70;;;35.25;;
10761;SDS011;5433;50.862;4.320;2024-03-07T04:59:48;60.70;;;35.13;;
10761;SDS011;5433;50.862;4.320;2024-03-07T05:02:15;58.60;;;33.67;;
10761;SDS011;5433;50.862;4.320;2024-03-07T05:04:41;64.93;;;35.63;;
10761;SDS011;5433;50.862;4.320;2024-03-07T05:07:07;63.30;;;33.85;;
10761;SDS011;5433;50.862;4.320;2024-03-07T05:09:33;64.95;;;34.78;;
10761;SDS011;5433;50.862;4.320;2024-03-07T05:11:59;68.88;;;37.85;;
10761;SDS011;5433;50.862;4.320;2024-03-07T05:14:25;70.60;;;36.05;;
10761;SDS011;5433;50.862;4.320;2024-03-07T05:16:51;70.18;;;35.35;;
10761;SDS011;5433;50.862;4.320;2024-03-07T05:19:35;75.35;;;36.60;;
10761;SDS011;5433;50.862;4.320;2024-03-07T05:22:01;74.35;;;36.85;;
10761;SDS011;5433;50.862;4.320;2024-03-07T05:24:30;73.75;;;37.33;;
10761;SDS011;5433;50.862;4.320;2024-03-07T05:26:56;77.32;;;35.90;;
10761;SDS011;5433;50.862;4.320;2024-03-07T05:29:22;66.10;;;30.55;;
10761;SDS011;5433;50.862;4.320;2024-03-07T05:31:48;78.53;;;36.15;;
10761;SDS011;5433;50.862;4.320;2024-03-07T05:34:18;85.00;;;38.67;;
10761;SDS011;5433;50.862;4.320;2024-03-07T05:36:44;81.88;;;33.13;;
10761;SDS011;5433;50.862;4.320;2024-03-07T05:39:12;87.47;;;38.38;;
10761;SDS011;5433;50.862;4.320;2024-03-07T05:41:38;89.57;;;38.45;;
10761;SDS011;5433;50.862;4.320;2024-03-07T05:44:05;91.30;;;40.47;;
10761;SDS011;5433;50.862;4.320;2024-03-07T05:46:35;88.97;;;37.45;;
10761;SDS011;5433;50.862;4.320;2024-03-07T05:49:01;71.65;;;30.15;;
10761;SDS011;5433;50.862;4.320;2024-03-07T05:51:28;93.60;;;39.20;;
10761;SDS011;5433;50.862;4.320;2024-03-07T05:53:54;91.47;;;40.33;;
10761;SDS011;5433;50.862;4.320;2024-03-07T05:56:20;73.97;;;32.08;;
10761;SDS011;5433;50.862;4.320;2024-03-07T05:58:47;94.90;;;39.42;;
10761;SDS011;5433;50.862;4.320;2024-03-07T06:01:13;87.43;;;38.72;;
10761;SDS011;5433;50.862;4.320;2024-03-07T06:03:39;99.43;;;41.17;;
10761;SDS011;5433;50.862;4.320;2024-03-07T06:06:05;95.63;;;41.13;;
10761;SDS011;5433;50.862;4.320;2024-03-07T06:08:36;90.70;;;37.45;;
10761;SDS011;5433;50.862;4.320;2024-03-07T06:11:02;97.57;;;40.72;;
10761;SDS011;5433;50.862;4.320;2024-03-07T06:13:28;100.60;;;41.50;;
10761;SDS011;5433;50.862;4.320;2024-03-07T06:15:55;96.03;;;38.63;;
10761;SDS011;5433;50.862;4.320;2024-03-07T06:18:21;97.70;;;41.90;;
10761;SDS011;5433;50.862;4.320;2024-03-07T06:20:48;107.28;;;41.33;;
10761;SDS011;5433;50.862;4.320;2024-03-07T06:23:14;96.75;;;39.92;;
10761;SDS011;5433;50.862;4.320;2024-03-07T06:25:41;101.78;;;41.17;;
10761;SDS011;5433;50.862;4.320;2024-03-07T06:28:19;104.97;;;41.60;;
10761;SDS011;5433;50.862;4.320;2024-03-07T06:30:45;101.60;;;40.78;;
10761;SDS011;5433;50.862;4.320;2024-03-07T06:33:11;109.28;;;41.65;;
10761;SDS011;5433;50.862;4.320;2024-03-07T06:35:38;101.45;;;39.17;;
10761;SDS011;5433;50.862;4.320;2024-03-07T06:38:05;115.93;;;40.15;;
10761;SDS011;5433;50.862;4.320;2024-03-07T06:40:31;98.10;;;37.38;;
10761;SDS011;5433;50.862;4.320;2024-03-07T06:42:58;99.03;;;39.28;;
10761;SDS011;5433;50.862;4.320;2024-03-07T06:45:24;114.25;;;40.45;;
10761;SDS011;5433;50.862;4.320;2024-03-07T06:47:50;95.68;;;39.63;;
10761;SDS011;5433;50.862;4.320;2024-03-07T06:50:17;95.68;;;38.70;;
10761;SDS011;5433;50.862;4.320;2024-03-07T06:52:47;90.63;;;35.25;;
10761;SDS011;5433;50.862;4.320;2024-03-07T06:55:17;94.53;;;35.92;;
10761;SDS011;5433;50.862;4.320;2024-03-07T06:57:43;88.97;;;38.75;;
10761;SDS011;5433;50.862;4.320;2024-03-07T07:00:10;101.72;;;39.30;;
10761;SDS011;5433;50.862;4.320;2024-03-07T07:02:42;88.75;;;38.22;;
10761;SDS011;5433;50.862;4.320;2024-03-07T07:05:09;92.75;;;38.08;;
10761;SDS011;5433;50.862;4.320;2024-03-07T07:07:43;100.70;;;40.00;;
10761;SDS011;5433;50.862;4.320;2024-03-07T07:10:10;95.78;;;40.97;;
10761;SDS011;5433;50.862;4.320;2024-03-07T07:12:49;94.97;;;37.60;;
10761;SDS011;5433;50.862;4.320;2024-03-07T07:15:16;94.65;;;39.63;;
10761;SDS011;5433;50.862;4.320;2024-03-07T07:17:43;85.70;;;37.35;;
10761;SDS011;5433;50.862;4.320;2024-03-07T07:20:14;91.03;;;38.97;;
10761;SDS011;5433;50.862;4.320;2024-03-07T07:22:47;89.80;;;38.60;;
10761;SDS011;5433;50.862;4.320;2024-03-07T07:25:16;84.57;;;33.30;;
10761;SDS011;5433;50.862;4.320;2024-03-07T07:27:43;99.72;;;36.13;;
10761;SDS011;5433;50.862;4.320;2024-03-07T07:30:11;92.30;;;37.78;;
10761;SDS011;5433;50.862;4.320;2024-03-07T07:32:37;78.38;;;30.40;;
10761;SDS011;5433;50.862;4.320;2024-03-07T07:35:04;84.35;;;38.00;;
10761;SDS011;5433;50.862;4.320;2024-03-07T07:37:36;98.00;;;38.08;;
10761;SDS011;5433;50.862;4.320;2024-03-07T07:40:02;89.18;;;36.33;;
10761;SDS011;5433;50.862;4.320;2024-03-07T07:42:32;91.15;;;37.72;;
10761;SDS011;5433;50.862;4.320;2024-03-07T07:44:57;88.88;;;37.47;;
10761;SDS011;5433;50.862;4.320;2024-03-07T07:47:23;93.68;;;37.78;;
10761;SDS011;5433;50.862;4.320;2024-03-07T07:49:49;85.90;;;32.10;;
10761;SDS011;5433;50.862;4.320;2024-03-07T07:52:15;95.03;;;37.67;;
10761;SDS011;5433;50.862;4.320;2024-03-07T07:54:45;88.15;;;33.40;;
10761;SDS011;5433;50.862;4.320;2024-03-07T07:57:11;77.82;;;33.78;;
10761;SDS011;5433;50.862;4.320;2024-03-07T07:59:40;87.85;;;35.85;;
10761;SDS011;5433;50.862;4.320;2024-03-07T08:02:07;87.07;;;38.08;;
10761;SDS011;5433;50.862;4.320;2024-03-07T08:04:33;85.82;;;38.10;;
10761;SDS011;5433;50.862;4.320;2024-03-07T08:06:59;98.45;;;39.33;;
10761;SDS011;5433;50.862;4.320;2024-03-07T08:09:33;90.97;;;37.55;;
10761;SDS011;5433;50.862;4.320;2024-03-07T08:11:59;90.38;;;37.40;;
10761;SDS011;5433;50.862;4.320;2024-03-07T08:14:28;86.80;;;34.28;;
10761;SDS011;5433;50.862;4.320;2024-03-07T08:16:54;88.07;;;36.60;;
10761;SDS011;5433;50.862;4.320;2024-03-07T08:19:21;83.72;;;35.50;;
10761;SDS011;5433;50.862;4.320;2024-03-07T08:21:48;83.50;;;35.80;;
10761;SDS011;5433;50.862;4.320;2024-03-07T08:24:14;94.45;;;37.78;;
10761;SDS011;5433;50.862;4.320;2024-03-07T08:26:40;87.07;;;38.25;;
10761;SDS011;5433;50.862;4.320;2024-03-07T08:29:09;94.78;;;39.15;;
10761;SDS011;5433;50.862;4.320;2024-03-07T08:31:36;85.55;;;37.55;;
10761;SDS011;5433;50.862;4.320;2024-03-07T08:34:05;88.68;;;37.47;;
10761;SDS011;5433;50.862;4.320;2024-03-07T08:36:31;89.85;;;36.47;;
10761;SDS011;5433;50.862;4.320;2024-03-07T08:38:57;91.57;;;37.88;;
10761;SDS011;5433;50.862;4.320;2024-03-07T08:41:23;83.38;;;34.83;;
10761;SDS011;5433;50.862;4.320;2024-03-07T08:43:49;85.85;;;37.03;;
10761;SDS011;5433;50.862;4.320;2024-03-07T08:46:16;82.25;;;34.95;;
10761;SDS011;5433;50.862;4.320;2024-03-07T08:48:42;72.03;;;33.97;;
10761;SDS011;5433;50.862;4.320;2024-03-07T08:51:08;72.85;;;32.92;;
10761;SDS011;5433;50.862;4.320;2024-03-07T08:53:34;76.90;;;34.35;;
10761;SDS011;5433;50.862;4.320;2024-03-07T08:56:01;71.78;;;31.17;;
10761;SDS011;5433;50.862;4.320;2024-03-07T08:58:27;69.40;;;33.22;;
10761;SDS011;5433;50.862;4.320;2024-03-07T09:00:53;67.47;;;31.35;;
10761;SDS011;5433;50.862;4.320;2024-03-07T09:03:19;65.13;;;31.50;;
10761;SDS011;5433;50.862;4.320;2024-03-07T09:05:46;72.85;;;34.17;;
10761;SDS011;5433;50.862;4.320;2024-03-07T09:08:12;64.10;;;30.80;;
10761;SDS011;5433;50.862;4.320;2024-03-07T09:10:38;69.72;;;32.25;;
10761;SDS011;5433;50.862;4.320;2024-03-07T09:13:06;69.10;;;32.92;;
10761;SDS011;5433;50.862;4.320;2024-03-07T09:15:32;69.90;;;33.80;;
10761;SDS011;5433;50.862;4.320;2024-03-07T09:17:58;75.00;;;35.08;;
10761;SDS011;5433;50.862;4.320;2024-03-07T09:20:26;69.22;;;33.47;;
10761;SDS011;5433;50.862;4.320;2024-03-07T09:22:52;71.13;;;35.75;;
10761;SDS011;5433;50.862;4.320;2024-03-07T09:25:19;78.50;;;34.53;;
10761;SDS011;5433;50.862;4.320;2024-03-07T09:27:45;78.45;;;33.63;;
10761;SDS011;5433;50.862;4.320;2024-03-07T09:30:11;74.05;;;33.15;;
10761;SDS011;5433;50.862;4.320;2024-03-07T09:32:39;73.35;;;36.10;;
10761;SDS011;5433;50.862;4.320;2024-03-07T09:35:06;73.60;;;36.15;;
10761;SDS011;5433;50.862;4.320;2024-03-07T09:37:32;66.30;;;35.08;;
10761;SDS011;5433;50.862;4.320;2024-03-07T09:39:58;73.68;;;35.38;;
10761;SDS011;5433;50.862;4.320;2024-03-07T09:42:25;70.78;;;34.42;;
10761;SDS011;5433;50.862;4.320;2024-03-07T09:44:53;71.90;;;34.78;;
10761;SDS011;5433;50.862;4.320;2024-03-07T09:47:21;68.63;;;33.65;;
10761;SDS011;5433;50.862;4.320;2024-03-07T09:49:47;63.25;;;33.05;;
10761;SDS011;5433;50.862;4.320;2024-03-07T09:52:14;68.43;;;33.70;;
10761;SDS011;5433;50.862;4.320;2024-03-07T09:54:41;48.03;;;24.42;;
10761;SDS011;5433;50.862;4.320;2024-03-07T09:57:09;60.88;;;31.10;;
10761;SDS011;5433;50.862;4.320;2024-03-07T09:59:36;61.75;;;31.20;;
10761;SDS011;5433;50.862;4.320;2024-03-07T10:02:06;62.90;;;33.78;;
10761;SDS011;5433;50.862;4.320;2024-03-07T10:04:44;66.45;;;34.55;;
10761;SDS011;5433;50.862;4.320;2024-03-07T10:07:16;65.88;;;33.80;;
10761;SDS011;5433;50.862;4.320;2024-03-07T10:09:43;60.90;;;31.40;;
10761;SDS011;5433;50.862;4.320;2024-03-07T10:12:09;64.55;;;33.92;;
10761;SDS011;5433;50.862;4.320;2024-03-07T10:14:37;64.43;;;33.15;;
10761;SDS011;5433;50.862;4.320;2024-03-07T10:17:03;61.28;;;33.78;;
10761;SDS011;5433;50.862;4.320;2024-03-07T10:19:30;61.25;;;32.80;;
10761;SDS011;5433;50.862;4.320;2024-03-07T10:21:56;62.22;;;32.47;;
10761;SDS011;5433;50.862;4.320;2024-03-07T10:24:26;59.75;;;33.83;;
10761;SDS011;5433;50.862;4.320;2024-03-07T10:26:53;60.00;;;32.75;;
10761;SDS011;5433;50.862;4.320;2024-03-07T10:29:23;55.67;;;31.20;;
10761;SDS011;5433;50.862;4.320;2024-03-07T10:31:49;59.35;;;32.17;;
10761;SDS011;5433;50.862;4.320;2024-03-07T10:34:16;56.13;;;32.42;;
10761;SDS011;5433;50.862;4.320;2024-03-07T10:36:42;55.65;;;32.55;;
10761;SDS011;5433;50.862;4.320;2024-03-07T10:39:08;52.03;;;30.10;;
10761;SDS011;5433;50.862;4.320;2024-03-07T10:41:45;52.55;;;29.58;;
10761;SDS011;5433;50.862;4.320;2024-03-07T10:44:18;54.45;;;33.78;;
10761;SDS011;5433;50.862;4.320;2024-03-07T10:46:46;60.55;;;33.17;;
10761;SDS011;5433;50.862;4.320;2024-03-07T10:49:18;60.42;;;36.35;;
10761;SDS011;5433;50.862;4.320;2024-03-07T10:51:51;56.25;;;33.10;;
10761;SDS011;5433;50.862;4.320;2024-03-07T10:54:34;57.40;;;34.33;;
10761;SDS011;5433;50.862;4.320;2024-03-07T10:59:45;55.35;;;32.45;;
10761;SDS011;5433;50.862;4.320;2024-03-07T11:02:27;53.45;;;31.67;;
10761;SDS011;5433;50.862;4.320;2024-03-07T11:04:57;50.88;;;28.48;;
10761;SDS011;5433;50.862;4.320;2024-03-07T11:07:24;49.80;;;29.83;;
10761;SDS011;5433;50.862;4.320;2024-03-07T11:09:52;43.85;;;26.20;;
10761;SDS011;5433;50.862;4.320;2024-03-07T11:12:23;46.35;;;28.55;;
10761;SDS011;5433;50.862;4.320;2024-03-07T11:14:52;50.42;;;29.65;;
10761;SDS011;5433;50.862;4.320;2024-03-07T11:17:22;45.67;;;28.85;;
10761;SDS011;5433;50.862;4.320;2024-03-07T11:19:49;45.97;;;28.75;;
10761;SDS011;5433;50.862;4.320;2024-03-07T11:22:30;44.70;;;26.77;;
10761;SDS011;5433;50.862;4.320;2024-03-07T11:25:02;42.13;;;26.08;;
10761;SDS011;5433;50.862;4.320;2024-03-07T11:27:32;40.35;;;26.83;;
10761;SDS011;5433;50.862;4.320;2024-03-07T11:30:08;42.95;;;28.40;;
10761;SDS011;5433;50.862;4.320;2024-03-07T11:32:39;40.38;;;26.85;;
10761;SDS011;5433;50.862;4.320;2024-03-07T11:35:13;39.58;;;25.98;;
10761;SDS011;5433;50.862;4.320;2024-03-07T11:37:40;38.97;;;25.25;;
10761;SDS011;5433;50.862;4.320;2024-03-07T11:40:58;39.80;;;25.40;;
10761;SDS011;5433;50.862;4.320;2024-03-07T11:43:00;37.58;;;25.25;;
10761;SDS011;5433;50.862;4.320;2024-03-07T11:48:36;37.63;;;24.77;;
10761;SDS011;5433;50.862;4.320;2024-03-07T11:51:06;36.30;;;24.77;;
10761;SDS011;5433;50.862;4.320;2024-03-07T11:53:36;37.38;;;24.40;;
10761;SDS011;5433;50.862;4.320;2024-03-07T11:56:02;32.92;;;23.35;;
10761;SDS011;5433;50.862;4.320;2024-03-07T11:58:37;34.45;;;22.85;;
10761;SDS011;5433;50.862;4.320;2024-03-07T12:01:05;31.40;;;21.77;;
10761;SDS011;5433;50.862;4.320;2024-03-07T12:03:35;29.90;;;21.42;;
10761;SDS011;5433;50.862;4.320;2024-03-07T12:06:02;36.33;;;21.92;;
10761;SDS011;5433;50.862;4.320;2024-03-07T12:08:28;30.13;;;21.98;;
10761;SDS011;5433;50.862;4.320;2024-03-07T12:10:54;31.55;;;22.52;;
10761;SDS011;5433;50.862;4.320;2024-03-07T12:13:21;29.35;;;20.35;;
10761;SDS011;5433;50.862;4.320;2024-03-07T12:15:47;32.30;;;21.30;;
10761;SDS011;5433;50.862;4.320;2024-03-07T12:18:16;34.90;;;21.80;;
10761;SDS011;5433;50.862;4.320;2024-03-07T12:20:43;28.40;;;20.33;;
10761;SDS011;5433;50.862;4.320;2024-03-07T12:23:19;31.08;;;21.10;;
10761;SDS011;5433;50.862;4.320;2024-03-07T12:25:45;28.50;;;19.98;;
10761;SDS011;5433;50.862;4.320;2024-03-07T12:28:12;28.13;;;20.77;;
10761;SDS011;5433;50.862;4.320;2024-03-07T12:33:17;28.63;;;20.45;;
10761;SDS011;5433;50.862;4.320;2024-03-07T12:35:45;29.67;;;20.27;;
10761;SDS011;5433;50.862;4.320;2024-03-07T12:38:11;25.63;;;19.75;;
10761;SDS011;5433;50.862;4.320;2024-03-07T12:40:40;28.58;;;20.08;;
10761;SDS011;5433;50.862;4.320;2024-03-07T12:43:16;26.15;;;19.33;;
10761;SDS011;5433;50.862;4.320;2024-03-07T12:45:51;26.98;;;19.50;;
10761;SDS011;5433;50.862;4.320;2024-03-07T12:48:19;26.63;;;18.70;;
10761;SDS011;5433;50.862;4.320;2024-03-07T12:50:46;25.67;;;19.73;;
10761;SDS011;5433;50.862;4.320;2024-03-07T12:53:19;26.67;;;19.48;;
10761;SDS011;5433;50.862;4.320;2024-03-07T12:55:47;25.75;;;18.48;;
10761;SDS011;5433;50.862;4.320;2024-03-07T12:58:13;28.10;;;20.40;;
10761;SDS011;5433;50.862;4.320;2024-03-07T13:00:40;28.30;;;19.85;;
10761;SDS011;5433;50.862;4.320;2024-03-07T13:03:06;30.00;;;20.77;;
10761;SDS011;5433;50.862;4.320;2024-03-07T13:05:33;27.95;;;21.85;;
10761;SDS011;5433;50.862;4.320;2024-03-07T13:07:59;29.27;;;22.55;;
10761;SDS011;5433;50.862;4.320;2024-03-07T13:10:25;30.65;;;22.33;;
10761;SDS011;5433;50.862;4.320;2024-03-07T13:12:51;26.55;;;20.52;;
10761;SDS011;5433;50.862;4.320;2024-03-07T13:15:20;29.27;;;22.30;;
10761;SDS011;5433;50.862;4.320;2024-03-07T13:17:47;25.95;;;17.33;;
10761;SDS011;5433;50.862;4.320;2024-03-07T13:20:18;29.92;;;22.10;;
10761;SDS011;5433;50.862;4.320;2024-03-07T13:22:47;30.95;;;20.48;;
10761;SDS011;5433;50.862;4.320;2024-03-07T13:25:14;29.45;;;22.20;;
10761;SDS011;5433;50.862;4.320;2024-03-07T13:27:43;28.08;;;21.33;;
10761;SDS011;5433;50.862;4.320;2024-03-07T13:30:10;26.35;;;19.58;;
10761;SDS011;5433;50.862;4.320;2024-03-07T13:32:40;28.00;;;22.13;;
10761;SDS011;5433;50.862;4.320;2024-03-07T13:35:06;27.45;;;20.35;;
10761;SDS011;5433;50.862;4.320;2024-03-07T13:37:36;27.50;;;20.25;;
10761;SDS011;5433;50.862;4.320;2024-03-07T13:40:02;28.92;;;21.02;;
10761;SDS011;5433;50.862;4.320;2024-03-07T13:42:47;24.23;;;17.48;;
10761;SDS011;5433;50.862;4.320;2024-03-07T13:45:13;27.58;;;18.23;;
10761;SDS011;5433;50.862;4.320;2024-03-07T13:47:39;25.35;;;16.55;;
10761;SDS011;5433;50.862;4.320;2024-03-07T13:50:07;26.85;;;20.08;;
10761;SDS011;5433;50.862;4.320;2024-03-07T13:55:46;27.38;;;19.63;;
10761;SDS011;5433;50.862;4.320;2024-03-07T13:58:18;26.98;;;18.90;;
10761;SDS011;5433;50.862;4.320;2024-03-07T14:00:53;22.85;;;16.00;;
10761;SDS011;5433;50.862;4.320;2024-03-07T14:03:25;27.38;;;19.65;;
10761;SDS011;5433;50.862;4.320;2024-03-07T14:08:39;27.13;;;19.88;;
10761;SDS011;5433;50.862;4.320;2024-03-07T14:14:06;26.67;;;19.02;;
10761;SDS011;5433;50.862;4.320;2024-03-07T14:22:02;23.77;;;17.77;;
10761;SDS011;5433;50.862;4.320;2024-03-07T14:29:37;21.40;;;17.20;;
10761;SDS011;5433;50.862;4.320;2024-03-07T14:32:05;21.50;;;16.55;;
10761;SDS011;5433;50.862;4.320;2024-03-07T14:37:09;25.13;;;17.17;;
10761;SDS011;5433;50.862;4.320;2024-03-07T14:39:37;22.42;;;17.40;;
10761;SDS011;5433;50.862;4.320;2024-03-07T14:42:05;21.00;;;16.05;;
10761;SDS011;5433;50.862;4.320;2024-03-07T14:44:36;21.98;;;16.20;;
10761;SDS011;5433;50.862;4.320;2024-03-07T14:47:06;22.70;;;17.02;;
10761;SDS011;5433;50.862;4.320;2024-03-07T14:49:33;22.33;;;16.30;;
10761;SDS011;5433;50.862;4.320;2024-03-07T14:51:59;23.90;;;17.90;;
10761;SDS011;5433;50.862;4.320;2024-03-07T14:54:25;22.00;;;18.00;;
10761;SDS011;5433;50.862;4.320;2024-03-07T14:56:52;23.58;;;17.55;;
10761;SDS011;5433;50.862;4.320;2024-03-07T14:59:18;25.35;;;18.73;;
10761;SDS011;5433;50.862;4.320;2024-03-07T15:01:45;24.92;;;19.42;;
10761;SDS011;5433;50.862;4.320;2024-03-07T15:04:13;22.00;;;18.65;;
10761;SDS011;5433;50.862;4.320;2024-03-07T15:06:39;20.13;;;16.23;;